sensor_id;sensor_type;location;lat;lon;timestamp;P1;durP1;ratioP1;P2;durP2;ratioP2
15102;SDS011;7652;53.584;9.998;2023-04-24T00:02:07;6.20;;;5.57;;
15102;SDS011;7652;53.584;9.998;2023-04-24T00:05:12;6.70;;;5.20;;
15102;SDS011;7652;53.584;9.998;2023-04-24T00:08:17;5.40;;;4.90;;
15102;SDS011;7652;53.584;9.998;2023-04-24T00:11:20;6.10;;;5.50;;
15102;SDS011;7652;53.584;9.998;2023-04-24T00:14:23;5.60;;;5.10;;
15102;SDS011;7652;53.584;9.998;2023-04-24T00:17:27;5.67;;;4.83;;
15102;SDS011;7652;53.584;9.998;2023-04-24T00:20:30;5.70;;;5.10;;
15102;SDS011;7652;53.584;9.998;2023-04-24T00:23:35;5.47;;;4.97;;
15102;SDS011;7652;53.584;9.998;2023-04-24T00:26:38;5.67;;;5.17;;
15102;SDS011;7652;53.584;9.998;2023-04-24T00:29:41;5.40;;;4.97;;
15102;SDS011;7652;53.584;9.998;2023-04-24T00:32:44;5.40;;;4.90;;
15102;SDS011;7652;53.584;9.998;2023-04-24T00:35:47;5.43;;;4.93;;
15102;SDS011;7652;53.584;9.998;2023-04-24T00:38:52;6.10;;;4.70;;
15102;SDS011;7652;53.584;9.998;2023-04-24T00:41:55;5.97;;;4.63;;
15102;SDS011;7652;53.584;9.998;2023-04-24T00:44:59;7.03;;;5.07;;
15102;SDS011;7652;53.584;9.998;2023-04-24T00:48:04;5.17;;;4.50;;
15102;SDS011;7652;53.584;9.998;2023-04-24T00:51:08;5.60;;;5.10;;
15102;SDS011;7652;53.584;9.998;2023-04-24T00:54:13;5.53;;;4.90;;
15102;SDS011;7652;53.584;9.998;2023-04-24T00:57:16;5.47;;;4.80;;
15102;SDS011;7652;53.584;9.998;2023-04-24T01:00:19;5.30;;;4.90;;
15102;SDS011;7652;53.584;9.998;2023-04-24T01:03:25;5.47;;;4.97;;
15102;SDS011;7652;53.584;9.998;2023-04-24T01:06:31;4.77;;;4.37;;
15102;SDS011;7652;53.584;9.998;2023-04-24T01:09:36;5.43;;;4.80;;
15102;SDS011;7652;53.584;9.998;2023-04-24T01:12:40;5.20;;;4.70;;
15102;SDS011;7652;53.584;9.998;2023-04-24T01:15:43;4.90;;;4.33;;
15102;SDS011;7652;53.584;9.998;2023-04-24T01:18:46;4.43;;;4.03;;
15102;SDS011;7652;53.584;9.998;2023-04-24T01:21:50;7.17;;;4.23;;
15102;SDS011;7652;53.584;9.998;2023-04-24T01:24:57;4.17;;;3.77;;
15102;SDS011;7652;53.584;9.998;2023-04-24T01:28:00;3.57;;;3.27;;
15102;SDS011;7652;53.584;9.998;2023-04-24T01:31:03;3.67;;;3.40;;
15102;SDS011;7652;53.584;9.998;2023-04-24T01:34:06;3.83;;;3.53;;
15102;SDS011;7652;53.584;9.998;2023-04-24T01:37:10;3.30;;;3.10;;
15102;SDS011;7652;53.584;9.998;2023-04-24T01:40:14;3.63;;;3.33;;
15102;SDS011;7652;53.584;9.998;2023-04-24T01:43:17;4.80;;;3.63;;
15102;SDS011;7652;53.584;9.998;2023-04-24T01:46:20;3.27;;;2.97;;
15102;SDS011;7652;53.584;9.998;2023-04-24T01:49:23;3.43;;;3.07;;
15102;SDS011;7652;53.584;9.998;2023-04-24T01:52:26;3.00;;;2.80;;
15102;SDS011;7652;53.584;9.998;2023-04-24T01:55:33;3.17;;;2.97;;
15102;SDS011;7652;53.584;9.998;2023-04-24T01:58:36;3.33;;;3.07;;
15102;SDS011;7652;53.584;9.998;2023-04-24T02:01:39;3.67;;;2.80;;
15102;SDS011;7652;53.584;9.998;2023-04-24T02:04:42;3.17;;;2.87;;
15102;SDS011;7652;53.584;9.998;2023-04-24T02:07:46;3.03;;;2.30;;
15102;SDS011;7652;53.584;9.998;2023-04-24T02:10:51;2.50;;;2.30;;
15102;SDS011;7652;53.584;9.998;2023-04-24T02:13:54;2.40;;;2.20;;
15102;SDS011;7652;53.584;9.998;2023-04-24T02:16:57;2.30;;;2.10;;
15102;SDS011;7652;53.584;9.998;2023-04-24T02:20:00;2.00;;;1.83;;
15102;SDS011;7652;53.584;9.998;2023-04-24T02:23:03;1.70;;;1.60;;
15102;SDS011;7652;53.584;9.998;2023-04-24T02:26:07;2.40;;;1.73;;
15102;SDS011;7652;53.584;9.998;2023-04-24T02:29:11;2.43;;;1.90;;
15102;SDS011;7652;53.584;9.998;2023-04-24T02:32:14;2.03;;;1.83;;
15102;SDS011;7652;53.584;9.998;2023-04-24T02:35:17;2.00;;;1.90;;
15102;SDS011;7652;53.584;9.998;2023-04-24T02:38:20;2.07;;;1.90;;
15102;SDS011;7652;53.584;9.998;2023-04-24T02:41:24;2.37;;;2.17;;
15102;SDS011;7652;53.584;9.998;2023-04-24T02:44:32;1.90;;;1.80;;
15102;SDS011;7652;53.584;9.998;2023-04-24T02:47:35;2.50;;;2.30;;
15102;SDS011;7652;53.584;9.998;2023-04-24T02:50:38;2.20;;;2.03;;
15102;SDS011;7652;53.584;9.998;2023-04-24T02:53:41;2.43;;;2.20;;
15102;SDS011;7652;53.584;9.998;2023-04-24T02:56:45;2.80;;;2.00;;
15102;SDS011;7652;53.584;9.998;2023-04-24T02:59:48;1.80;;;1.70;;
15102;SDS011;7652;53.584;9.998;2023-04-24T03:02:51;1.90;;;1.80;;
15102;SDS011;7652;53.584;9.998;2023-04-24T03:05:55;1.80;;;1.70;;
15102;SDS011;7652;53.584;9.998;2023-04-24T03:08:58;2.27;;;2.10;;
15102;SDS011;7652;53.584;9.998;2023-04-24T03:12:02;2.27;;;1.97;;
15102;SDS011;7652;53.584;9.998;2023-04-24T03:15:06;2.00;;;1.80;;
15102;SDS011;7652;53.584;9.998;2023-04-24T03:18:09;1.63;;;1.53;;
15102;SDS011;7652;53.584;9.998;2023-04-24T03:21:14;2.03;;;1.60;;
15102;SDS011;7652;53.584;9.998;2023-04-24T03:24:17;1.60;;;1.50;;
15102;SDS011;7652;53.584;9.998;2023-04-24T03:27:21;1.50;;;1.40;;
15102;SDS011;7652;53.584;9.998;2023-04-24T03:30:24;1.40;;;1.30;;
15102;SDS011;7652;53.584;9.998;2023-04-24T03:33:27;1.37;;;1.13;;
15102;SDS011;7652;53.584;9.998;2023-04-24T03:36:30;1.53;;;1.30;;
15102;SDS011;7652;53.584;9.998;2023-04-24T03:39:33;1.97;;;1.47;;
15102;SDS011;7652;53.584;9.998;2023-04-24T03:42:38;1.67;;;1.43;;
15102;SDS011;7652;53.584;9.998;2023-04-24T03:45:41;2.37;;;1.60;;
15102;SDS011;7652;53.584;9.998;2023-04-24T03:48:44;1.43;;;1.33;;
15102;SDS011;7652;53.584;9.998;2023-04-24T03:51:47;1.30;;;1.30;;
15102;SDS011;7652;53.584;9.998;2023-04-24T03:54:50;1.63;;;1.53;;
15102;SDS011;7652;53.584;9.998;2023-04-24T03:57:54;1.77;;;1.60;;
15102;SDS011;7652;53.584;9.998;2023-04-24T04:00:57;1.90;;;1.50;;
15102;SDS011;7652;53.584;9.998;2023-04-24T04:04:00;1.50;;;1.40;;
15102;SDS011;7652;53.584;9.998;2023-04-24T04:07:04;3.30;;;1.47;;
15102;SDS011;7652;53.584;9.998;2023-04-24T04:10:07;1.23;;;1.23;;
15102;SDS011;7652;53.584;9.998;2023-04-24T04:13:12;1.37;;;1.30;;
15102;SDS011;7652;53.584;9.998;2023-04-24T04:16:15;1.30;;;1.20;;
15102;SDS011;7652;53.584;9.998;2023-04-24T04:19:21;1.30;;;1.20;;
15102;SDS011;7652;53.584;9.998;2023-04-24T04:22:24;1.20;;;1.10;;
15102;SDS011;7652;53.584;9.998;2023-04-24T04:25:27;1.17;;;1.03;;
15102;SDS011;7652;53.584;9.998;2023-04-24T04:28:34;1.10;;;1.10;;
15102;SDS011;7652;53.584;9.998;2023-04-24T04:31:37;1.00;;;1.00;;
15102;SDS011;7652;53.584;9.998;2023-04-24T04:34:41;0.97;;;0.93;;
15102;SDS011;7652;53.584;9.998;2023-04-24T04:37:46;1.37;;;0.90;;
15102;SDS011;7652;53.584;9.998;2023-04-24T04:40:49;1.13;;;1.03;;
15102;SDS011;7652;53.584;9.998;2023-04-24T04:43:54;1.43;;;1.10;;
15102;SDS011;7652;53.584;9.998;2023-04-24T04:46:59;0.90;;;0.90;;
15102;SDS011;7652;53.584;9.998;2023-04-24T04:50:05;1.23;;;1.03;;
15102;SDS011;7652;53.584;9.998;2023-04-24T04:53:08;2.37;;;1.20;;
15102;SDS011;7652;53.584;9.998;2023-04-24T04:56:11;1.17;;;1.10;;
15102;SDS011;7652;53.584;9.998;2023-04-24T04:59:16;0.97;;;0.90;;
15102;SDS011;7652;53.584;9.998;2023-04-24T05:02:19;1.67;;;0.97;;
15102;SDS011;7652;53.584;9.998;2023-04-24T05:05:22;1.33;;;1.20;;
15102;SDS011;7652;53.584;9.998;2023-04-24T05:08:25;1.70;;;0.90;;
15102;SDS011;7652;53.584;9.998;2023-04-24T05:11:28;1.83;;;0.97;;
15102;SDS011;7652;53.584;9.998;2023-04-24T05:14:33;0.83;;;0.83;;
15102;SDS011;7652;53.584;9.998;2023-04-24T05:17:36;2.10;;;0.93;;
15102;SDS011;7652;53.584;9.998;2023-04-24T05:20:41;1.33;;;1.00;;
15102;SDS011;7652;53.584;9.998;2023-04-24T05:23:45;2.20;;;1.10;;
15102;SDS011;7652;53.584;9.998;2023-04-24T05:26:48;1.17;;;1.07;;
15102;SDS011;7652;53.584;9.998;2023-04-24T05:29:52;1.20;;;1.10;;
15102;SDS011;7652;53.584;9.998;2023-04-24T05:32:55;2.43;;;0.93;;
15102;SDS011;7652;53.584;9.998;2023-04-24T05:36:00;1.83;;;1.07;;
15102;SDS011;7652;53.584;9.998;2023-04-24T05:39:02;1.40;;;0.87;;
15102;SDS011;7652;53.584;9.998;2023-04-24T05:42:08;2.27;;;1.43;;
15102;SDS011;7652;53.584;9.998;2023-04-24T05:45:13;0.70;;;0.70;;
15102;SDS011;7652;53.584;9.998;2023-04-24T05:48:18;0.90;;;0.90;;
15102;SDS011;7652;53.584;9.998;2023-04-24T05:51:20;1.10;;;1.00;;
15102;SDS011;7652;53.584;9.998;2023-04-24T05:54:23;1.00;;;0.90;;
15102;SDS011;7652;53.584;9.998;2023-04-24T05:57:26;2.67;;;1.30;;
15102;SDS011;7652;53.584;9.998;2023-04-24T06:00:31;1.07;;;1.07;;
15102;SDS011;7652;53.584;9.998;2023-04-24T06:03:35;1.40;;;1.00;;
15102;SDS011;7652;53.584;9.998;2023-04-24T06:06:38;2.30;;;1.13;;
15102;SDS011;7652;53.584;9.998;2023-04-24T06:09:41;1.83;;;1.00;;
15102;SDS011;7652;53.584;9.998;2023-04-24T06:12:44;1.90;;;1.23;;
15102;SDS011;7652;53.584;9.998;2023-04-24T06:15:49;2.47;;;1.30;;
15102;SDS011;7652;53.584;9.998;2023-04-24T06:18:52;1.33;;;1.00;;
15102;SDS011;7652;53.584;9.998;2023-04-24T06:21:55;2.50;;;0.93;;
15102;SDS011;7652;53.584;9.998;2023-04-24T06:24:58;1.00;;;0.90;;
15102;SDS011;7652;53.584;9.998;2023-04-24T06:28:02;1.30;;;1.20;;
15102;SDS011;7652;53.584;9.998;2023-04-24T06:31:06;1.10;;;1.00;;
15102;SDS011;7652;53.584;9.998;2023-04-24T06:34:09;1.23;;;1.13;;
15102;SDS011;7652;53.584;9.998;2023-04-24T06:37:12;1.27;;;0.90;;
15102;SDS011;7652;53.584;9.998;2023-04-24T06:40:15;1.27;;;1.17;;
15102;SDS011;7652;53.584;9.998;2023-04-24T06:43:19;1.07;;;0.97;;
15102;SDS011;7652;53.584;9.998;2023-04-24T06:46:24;3.17;;;1.30;;
15102;SDS011;7652;53.584;9.998;2023-04-24T06:49:27;1.30;;;1.20;;
15102;SDS011;7652;53.584;9.998;2023-04-24T06:52:30;1.87;;;1.30;;
15102;SDS011;7652;53.584;9.998;2023-04-24T06:55:35;1.50;;;1.40;;
15102;SDS011;7652;53.584;9.998;2023-04-24T06:58:38;1.20;;;1.10;;
15102;SDS011;7652;53.584;9.998;2023-04-24T07:01:43;1.40;;;1.30;;
15102;SDS011;7652;53.584;9.998;2023-04-24T07:04:46;1.43;;;1.33;;
15102;SDS011;7652;53.584;9.998;2023-04-24T07:07:49;3.13;;;1.60;;
15102;SDS011;7652;53.584;9.998;2023-04-24T07:10:53;1.93;;;1.40;;
15102;SDS011;7652;53.584;9.998;2023-04-24T07:13:57;3.30;;;1.70;;
15102;SDS011;7652;53.584;9.998;2023-04-24T07:17:01;1.63;;;1.40;;
15102;SDS011;7652;53.584;9.998;2023-04-24T07:20:05;2.33;;;1.50;;
15102;SDS011;7652;53.584;9.998;2023-04-24T07:23:10;1.90;;;1.70;;
15102;SDS011;7652;53.584;9.998;2023-04-24T07:26:13;2.10;;;2.00;;
15102;SDS011;7652;53.584;9.998;2023-04-24T07:29:17;2.10;;;1.90;;
15102;SDS011;7652;53.584;9.998;2023-04-24T07:32:22;1.77;;;1.67;;
15102;SDS011;7652;53.584;9.998;2023-04-24T07:35:25;1.87;;;1.60;;
15102;SDS011;7652;53.584;9.998;2023-04-24T07:38:29;3.43;;;1.87;;
15102;SDS011;7652;53.584;9.998;2023-04-24T07:41:32;1.87;;;1.73;;
15102;SDS011;7652;53.584;9.998;2023-04-24T07:44:35;2.20;;;2.00;;
15102;SDS011;7652;53.584;9.998;2023-04-24T07:47:39;3.50;;;1.97;;
15102;SDS011;7652;53.584;9.998;2023-04-24T07:50:45;2.63;;;2.43;;
15102;SDS011;7652;53.584;9.998;2023-04-24T07:53:48;2.43;;;2.20;;
15102;SDS011;7652;53.584;9.998;2023-04-24T07:56:51;2.67;;;2.47;;
15102;SDS011;7652;53.584;9.998;2023-04-24T07:59:54;2.50;;;2.30;;
15102;SDS011;7652;53.584;9.998;2023-04-24T08:02:59;2.10;;;2.00;;
15102;SDS011;7652;53.584;9.998;2023-04-24T08:06:02;4.30;;;2.30;;
15102;SDS011;7652;53.584;9.998;2023-04-24T08:09:05;2.70;;;2.50;;
15102;SDS011;7652;53.584;9.998;2023-04-24T08:12:08;2.77;;;2.37;;
15102;SDS011;7652;53.584;9.998;2023-04-24T08:15:11;2.47;;;2.33;;
15102;SDS011;7652;53.584;9.998;2023-04-24T08:18:15;2.80;;;2.60;;
15102;SDS011;7652;53.584;9.998;2023-04-24T08:21:19;3.50;;;3.13;;
15102;SDS011;7652;53.584;9.998;2023-04-24T08:24:22;4.07;;;2.90;;
15102;SDS011;7652;53.584;9.998;2023-04-24T08:27:26;3.60;;;3.30;;
15102;SDS011;7652;53.584;9.998;2023-04-24T08:30:29;3.50;;;3.03;;
15102;SDS011;7652;53.584;9.998;2023-04-24T08:33:33;3.17;;;2.90;;
15102;SDS011;7652;53.584;9.998;2023-04-24T08:36:36;4.80;;;2.97;;
15102;SDS011;7652;53.584;9.998;2023-04-24T08:39:47;4.20;;;3.00;;
15102;SDS011;7652;53.584;9.998;2023-04-24T08:42:51;2.80;;;2.60;;
15102;SDS011;7652;53.584;9.998;2023-04-24T08:45:57;3.10;;;2.80;;
15102;SDS011;7652;53.584;9.998;2023-04-24T08:49:02;3.30;;;3.00;;
15102;SDS011;7652;53.584;9.998;2023-04-24T08:52:07;3.90;;;2.90;;
15102;SDS011;7652;53.584;9.998;2023-04-24T08:55:10;3.60;;;3.30;;
15102;SDS011;7652;53.584;9.998;2023-04-24T08:58:13;4.07;;;3.50;;
15102;SDS011;7652;53.584;9.998;2023-04-24T09:01:19;3.57;;;3.30;;
15102;SDS011;7652;53.584;9.998;2023-04-24T09:04:24;4.50;;;4.10;;
15102;SDS011;7652;53.584;9.998;2023-04-24T09:07:28;3.93;;;3.63;;
15102;SDS011;7652;53.584;9.998;2023-04-24T09:10:34;3.93;;;3.63;;
15102;SDS011;7652;53.584;9.998;2023-04-24T09:13:37;3.90;;;3.60;;
15102;SDS011;7652;53.584;9.998;2023-04-24T09:16:41;3.50;;;3.20;;
15102;SDS011;7652;53.584;9.998;2023-04-24T09:19:46;3.80;;;3.50;;
15102;SDS011;7652;53.584;9.998;2023-04-24T09:22:49;5.80;;;3.33;;
15102;SDS011;7652;53.584;9.998;2023-04-24T09:25:56;3.67;;;3.30;;
15102;SDS011;7652;53.584;9.998;2023-04-24T09:29:01;3.73;;;3.43;;
15102;SDS011;7652;53.584;9.998;2023-04-24T09:32:17;3.93;;;3.53;;
15102;SDS011;7652;53.584;9.998;2023-04-24T09:35:24;3.43;;;3.13;;
15102;SDS011;7652;53.584;9.998;2023-04-24T09:38:30;3.70;;;3.40;;
15102;SDS011;7652;53.584;9.998;2023-04-24T09:41:34;3.50;;;3.30;;
15102;SDS011;7652;53.584;9.998;2023-04-24T09:44:37;3.40;;;3.10;;
15102;SDS011;7652;53.584;9.998;2023-04-24T09:47:41;3.77;;;3.33;;
15102;SDS011;7652;53.584;9.998;2023-04-24T09:50:46;4.40;;;3.87;;
15102;SDS011;7652;53.584;9.998;2023-04-24T09:53:50;4.63;;;4.20;;
15102;SDS011;7652;53.584;9.998;2023-04-24T09:56:56;5.37;;;4.10;;
15102;SDS011;7652;53.584;9.998;2023-04-24T09:59:59;3.67;;;3.33;;
15102;SDS011;7652;53.584;9.998;2023-04-24T10:03:02;4.13;;;3.53;;
15102;SDS011;7652;53.584;9.998;2023-04-24T10:06:11;4.80;;;4.40;;
15102;SDS011;7652;53.584;9.998;2023-04-24T10:09:15;4.00;;;3.70;;
15102;SDS011;7652;53.584;9.998;2023-04-24T10:12:18;5.10;;;3.90;;
15102;SDS011;7652;53.584;9.998;2023-04-24T10:15:21;5.23;;;4.40;;
15102;SDS011;7652;53.584;9.998;2023-04-24T10:18:24;7.03;;;4.93;;
15102;SDS011;7652;53.584;9.998;2023-04-24T10:21:30;5.03;;;4.60;;
15102;SDS011;7652;53.584;9.998;2023-04-24T10:24:33;6.00;;;5.33;;
15102;SDS011;7652;53.584;9.998;2023-04-24T10:27:38;5.30;;;4.87;;
15102;SDS011;7652;53.584;9.998;2023-04-24T10:30:42;6.07;;;5.33;;
15102;SDS011;7652;53.584;9.998;2023-04-24T10:33:45;6.60;;;5.70;;
15102;SDS011;7652;53.584;9.998;2023-04-24T10:36:51;8.60;;;6.67;;
15102;SDS011;7652;53.584;9.998;2023-04-24T10:39:58;8.00;;;6.70;;
15102;SDS011;7652;53.584;9.998;2023-04-24T10:43:02;7.60;;;6.80;;
15102;SDS011;7652;53.584;9.998;2023-04-24T10:46:07;9.33;;;6.07;;
15102;SDS011;7652;53.584;9.998;2023-04-24T10:49:11;7.23;;;6.53;;
15102;SDS011;7652;53.584;9.998;2023-04-24T10:52:16;8.77;;;6.77;;
15102;SDS011;7652;53.584;9.998;2023-04-24T10:58:47;8.03;;;7.30;;
15102;SDS011;7652;53.584;9.998;2023-04-24T11:01:54;7.47;;;6.63;;
15102;SDS011;7652;53.584;9.998;2023-04-24T11:04:57;12.43;;;7.20;;
15102;SDS011;7652;53.584;9.998;2023-04-24T11:08:13;8.67;;;6.50;;
15102;SDS011;7652;53.584;9.998;2023-04-24T11:11:17;9.13;;;6.77;;
15102;SDS011;7652;53.584;9.998;2023-04-24T11:14:22;7.67;;;6.67;;
15102;SDS011;7652;53.584;9.998;2023-04-24T11:17:31;9.10;;;6.93;;
15102;SDS011;7652;53.584;9.998;2023-04-24T11:20:36;7.50;;;6.77;;
15102;SDS011;7652;53.584;9.998;2023-04-24T11:23:45;7.63;;;6.27;;
15102;SDS011;7652;53.584;9.998;2023-04-24T11:26:50;7.63;;;6.33;;
15102;SDS011;7652;53.584;9.998;2023-04-24T11:29:58;6.10;;;5.60;;
15102;SDS011;7652;53.584;9.998;2023-04-24T11:33:03;6.83;;;6.13;;
15102;SDS011;7652;53.584;9.998;2023-04-24T11:36:07;5.87;;;5.33;;
15102;SDS011;7652;53.584;9.998;2023-04-24T11:39:12;5.57;;;5.07;;
15102;SDS011;7652;53.584;9.998;2023-04-24T11:42:15;6.50;;;5.63;;
15102;SDS011;7652;53.584;9.998;2023-04-24T11:45:20;7.30;;;5.80;;
15102;SDS011;7652;53.584;9.998;2023-04-24T11:48:25;7.87;;;5.97;;
15102;SDS011;7652;53.584;9.998;2023-04-24T11:51:28;7.23;;;6.30;;
15102;SDS011;7652;53.584;9.998;2023-04-24T11:54:47;5.73;;;5.13;;
15102;SDS011;7652;53.584;9.998;2023-04-24T11:57:53;6.93;;;6.27;;
15102;SDS011;7652;53.584;9.998;2023-04-24T12:00:58;6.30;;;5.77;;
15102;SDS011;7652;53.584;9.998;2023-04-24T12:04:02;5.87;;;5.23;;
15102;SDS011;7652;53.584;9.998;2023-04-24T12:07:06;5.07;;;4.53;;
15102;SDS011;7652;53.584;9.998;2023-04-24T12:10:11;5.33;;;4.80;;
15102;SDS011;7652;53.584;9.998;2023-04-24T12:13:14;5.60;;;5.10;;
15102;SDS011;7652;53.584;9.998;2023-04-24T12:16:17;4.97;;;4.47;;
15102;SDS011;7652;53.584;9.998;2023-04-24T12:19:20;4.80;;;4.33;;
15102;SDS011;7652;53.584;9.998;2023-04-24T12:22:24;5.20;;;4.77;;
15102;SDS011;7652;53.584;9.998;2023-04-24T12:25:29;6.23;;;4.97;;
15102;SDS011;7652;53.584;9.998;2023-04-24T12:28:36;5.40;;;4.90;;
15102;SDS011;7652;53.584;9.998;2023-04-24T12:31:39;4.63;;;4.20;;
15102;SDS011;7652;53.584;9.998;2023-04-24T12:34:43;5.50;;;4.13;;
15102;SDS011;7652;53.584;9.998;2023-04-24T12:37:46;5.43;;;3.87;;
15102;SDS011;7652;53.584;9.998;2023-04-24T12:41:01;4.83;;;4.43;;
15102;SDS011;7652;53.584;9.998;2023-04-24T12:44:09;4.90;;;4.50;;
15102;SDS011;7652;53.584;9.998;2023-04-24T12:47:13;6.07;;;4.40;;
15102;SDS011;7652;53.584;9.998;2023-04-24T12:50:16;4.97;;;4.57;;
15102;SDS011;7652;53.584;9.998;2023-04-24T12:53:19;5.20;;;4.70;;
15102;SDS011;7652;53.584;9.998;2023-04-24T12:56:24;7.07;;;4.77;;
15102;SDS011;7652;53.584;9.998;2023-04-24T12:59:27;6.23;;;4.93;;
15102;SDS011;7652;53.584;9.998;2023-04-24T13:02:30;6.23;;;5.30;;
15102;SDS011;7652;53.584;9.998;2023-04-24T13:05:33;5.07;;;4.67;;
15102;SDS011;7652;53.584;9.998;2023-04-24T13:08:36;4.97;;;4.47;;
15102;SDS011;7652;53.584;9.998;2023-04-24T13:11:41;5.17;;;4.67;;
15102;SDS011;7652;53.584;9.998;2023-04-24T13:14:44;4.97;;;4.57;;
15102;SDS011;7652;53.584;9.998;2023-04-24T13:17:47;5.17;;;4.67;;
15102;SDS011;7652;53.584;9.998;2023-04-24T13:20:50;4.80;;;4.40;;
15102;SDS011;7652;53.584;9.998;2023-04-24T13:23:53;4.70;;;4.20;;
15102;SDS011;7652;53.584;9.998;2023-04-24T13:26:58;8.60;;;4.53;;
15102;SDS011;7652;53.584;9.998;2023-04-24T13:30:02;5.73;;;3.60;;
15102;SDS011;7652;53.584;9.998;2023-04-24T13:33:05;9.20;;;4.03;;
15102;SDS011;7652;53.584;9.998;2023-04-24T13:36:09;4.27;;;3.93;;
15102;SDS011;7652;53.584;9.998;2023-04-24T13:39:12;3.80;;;3.50;;
15102;SDS011;7652;53.584;9.998;2023-04-24T13:42:16;3.23;;;3.03;;
15102;SDS011;7652;53.584;9.998;2023-04-24T13:45:20;3.90;;;3.50;;
15102;SDS011;7652;53.584;9.998;2023-04-24T13:48:26;4.17;;;3.73;;
15102;SDS011;7652;53.584;9.998;2023-04-24T13:51:29;4.03;;;3.43;;
15102;SDS011;7652;53.584;9.998;2023-04-24T13:54:32;3.53;;;3.30;;
15102;SDS011;7652;53.584;9.998;2023-04-24T13:57:36;4.33;;;3.80;;
15102;SDS011;7652;53.584;9.998;2023-04-24T14:00:39;3.87;;;3.43;;
15102;SDS011;7652;53.584;9.998;2023-04-24T14:03:42;3.40;;;3.10;;
15102;SDS011;7652;53.584;9.998;2023-04-24T14:06:46;4.23;;;3.50;;
15102;SDS011;7652;53.584;9.998;2023-04-24T14:09:49;3.77;;;3.33;;
15102;SDS011;7652;53.584;9.998;2023-04-24T14:12:53;4.37;;;4.07;;
15102;SDS011;7652;53.584;9.998;2023-04-24T14:15:56;3.63;;;3.30;;
15102;SDS011;7652;53.584;9.998;2023-04-24T14:19:00;3.60;;;3.30;;
15102;SDS011;7652;53.584;9.998;2023-04-24T14:22:03;3.60;;;3.30;;
15102;SDS011;7652;53.584;9.998;2023-04-24T14:25:07;3.80;;;3.40;;
15102;SDS011;7652;53.584;9.998;2023-04-24T14:28:12;3.17;;;2.97;;
15102;SDS011;7652;53.584;9.998;2023-04-24T14:31:15;3.23;;;2.93;;
15102;SDS011;7652;53.584;9.998;2023-04-24T14:34:18;3.40;;;3.20;;
15102;SDS011;7652;53.584;9.998;2023-04-24T14:37:21;3.50;;;3.30;;
15102;SDS011;7652;53.584;9.998;2023-04-24T14:40:24;4.20;;;3.90;;
15102;SDS011;7652;53.584;9.998;2023-04-24T14:43:48;6.47;;;4.53;;
15102;SDS011;7652;53.584;9.998;2023-04-24T14:46:51;5.00;;;4.60;;
15102;SDS011;7652;53.584;9.998;2023-04-24T14:49:54;4.80;;;4.40;;
15102;SDS011;7652;53.584;9.998;2023-04-24T14:52:57;5.07;;;4.73;;
15102;SDS011;7652;53.584;9.998;2023-04-24T14:56:00;5.77;;;5.27;;
15102;SDS011;7652;53.584;9.998;2023-04-24T14:59:05;6.10;;;5.60;;
15102;SDS011;7652;53.584;9.998;2023-04-24T15:02:08;6.60;;;5.93;;
15102;SDS011;7652;53.584;9.998;2023-04-24T15:05:18;7.00;;;6.30;;
15102;SDS011;7652;53.584;9.998;2023-04-24T15:08:21;6.77;;;5.93;;
15102;SDS011;7652;53.584;9.998;2023-04-24T15:11:25;5.83;;;5.43;;
15102;SDS011;7652;53.584;9.998;2023-04-24T15:14:30;5.57;;;5.07;;
15102;SDS011;7652;53.584;9.998;2023-04-24T15:17:33;5.90;;;4.80;;
15102;SDS011;7652;53.584;9.998;2023-04-24T15:20:36;5.40;;;4.90;;
15102;SDS011;7652;53.584;9.998;2023-04-24T15:23:41;4.80;;;4.40;;
15102;SDS011;7652;53.584;9.998;2023-04-24T15:26:44;3.40;;;3.10;;
15102;SDS011;7652;53.584;9.998;2023-04-24T15:29:48;2.17;;;2.00;;
15102;SDS011;7652;53.584;9.998;2023-04-24T15:32:51;1.80;;;1.70;;
15102;SDS011;7652;53.584;9.998;2023-04-24T15:35:54;2.03;;;1.60;;
15102;SDS011;7652;53.584;9.998;2023-04-24T15:38:57;1.90;;;1.80;;
15102;SDS011;7652;53.584;9.998;2023-04-24T15:42:03;1.70;;;1.60;;
15102;SDS011;7652;53.584;9.998;2023-04-24T15:45:08;2.03;;;1.70;;
15102;SDS011;7652;53.584;9.998;2023-04-24T15:48:11;2.10;;;1.90;;
15102;SDS011;7652;53.584;9.998;2023-04-24T15:51:14;5.40;;;3.07;;
15102;SDS011;7652;53.584;9.998;2023-04-24T15:54:17;5.87;;;4.30;;
15102;SDS011;7652;53.584;9.998;2023-04-24T15:57:20;5.37;;;4.87;;
15102;SDS011;7652;53.584;9.998;2023-04-24T16:00:25;6.30;;;5.13;;
15102;SDS011;7652;53.584;9.998;2023-04-24T16:03:34;5.70;;;5.03;;
15102;SDS011;7652;53.584;9.998;2023-04-24T16:06:37;6.10;;;5.50;;
15102;SDS011;7652;53.584;9.998;2023-04-24T16:09:41;8.63;;;6.47;;
15102;SDS011;7652;53.584;9.998;2023-04-24T16:12:44;6.53;;;5.83;;
15102;SDS011;7652;53.584;9.998;2023-04-24T16:15:48;8.67;;;6.03;;
15102;SDS011;7652;53.584;9.998;2023-04-24T16:18:52;5.97;;;5.37;;
15102;SDS011;7652;53.584;9.998;2023-04-24T16:21:55;5.70;;;5.07;;
15102;SDS011;7652;53.584;9.998;2023-04-24T16:24:59;4.83;;;4.10;;
15102;SDS011;7652;53.584;9.998;2023-04-24T16:28:02;3.63;;;3.33;;
15102;SDS011;7652;53.584;9.998;2023-04-24T16:31:06;3.40;;;3.10;;
15102;SDS011;7652;53.584;9.998;2023-04-24T16:34:09;3.50;;;3.20;;
15102;SDS011;7652;53.584;9.998;2023-04-24T16:37:12;3.53;;;2.93;;
15102;SDS011;7652;53.584;9.998;2023-04-24T16:40:15;3.50;;;2.40;;
15102;SDS011;7652;53.584;9.998;2023-04-24T16:43:18;2.73;;;2.50;;
15102;SDS011;7652;53.584;9.998;2023-04-24T16:46:23;3.43;;;2.50;;
15102;SDS011;7652;53.584;9.998;2023-04-24T16:49:26;4.77;;;2.50;;
15102;SDS011;7652;53.584;9.998;2023-04-24T16:52:31;3.27;;;2.80;;
15102;SDS011;7652;53.584;9.998;2023-04-24T16:55:34;3.60;;;2.57;;
15102;SDS011;7652;53.584;9.998;2023-04-24T16:58:37;4.87;;;3.27;;
15102;SDS011;7652;53.584;9.998;2023-04-24T17:01:41;3.13;;;2.87;;
15102;SDS011;7652;53.584;9.998;2023-04-24T17:04:44;5.33;;;3.47;;
15102;SDS011;7652;53.584;9.998;2023-04-24T17:07:48;3.73;;;3.40;;
15102;SDS011;7652;53.584;9.998;2023-04-24T17:10:51;4.17;;;3.43;;
15102;SDS011;7652;53.584;9.998;2023-04-24T17:13:54;5.00;;;3.50;;
15102;SDS011;7652;53.584;9.998;2023-04-24T17:17:01;4.00;;;3.60;;
15102;SDS011;7652;53.584;9.998;2023-04-24T17:20:05;4.67;;;3.77;;
15102;SDS011;7652;53.584;9.998;2023-04-24T17:23:22;5.43;;;3.77;;
15102;SDS011;7652;53.584;9.998;2023-04-24T17:26:26;4.50;;;3.93;;
15102;SDS011;7652;53.584;9.998;2023-04-24T17:29:32;3.77;;;3.33;;
15102;SDS011;7652;53.584;9.998;2023-04-24T17:32:37;5.03;;;3.93;;
15102;SDS011;7652;53.584;9.998;2023-04-24T17:35:40;4.20;;;3.70;;
15102;SDS011;7652;53.584;9.998;2023-04-24T17:38:43;5.07;;;4.00;;
15102;SDS011;7652;53.584;9.998;2023-04-24T17:41:47;5.17;;;3.73;;
15102;SDS011;7652;53.584;9.998;2023-04-24T17:44:50;6.57;;;3.57;;
15102;SDS011;7652;53.584;9.998;2023-04-24T17:47:54;4.83;;;4.03;;
15102;SDS011;7652;53.584;9.998;2023-04-24T17:50:58;5.40;;;3.90;;
15102;SDS011;7652;53.584;9.998;2023-04-24T17:54:00;5.23;;;3.57;;
15102;SDS011;7652;53.584;9.998;2023-04-24T17:57:04;4.50;;;3.37;;
15102;SDS011;7652;53.584;9.998;2023-04-24T18:00:07;5.67;;;4.07;;
15102;SDS011;7652;53.584;9.998;2023-04-24T18:03:12;5.87;;;3.80;;
15102;SDS011;7652;53.584;9.998;2023-04-24T18:06:16;5.43;;;3.70;;
15102;SDS011;7652;53.584;9.998;2023-04-24T18:09:19;4.13;;;3.73;;
15102;SDS011;7652;53.584;9.998;2023-04-24T18:12:22;5.83;;;3.93;;
15102;SDS011;7652;53.584;9.998;2023-04-24T18:15:25;4.37;;;3.43;;
15102;SDS011;7652;53.584;9.998;2023-04-24T18:18:30;4.77;;;3.70;;
15102;SDS011;7652;53.584;9.998;2023-04-24T18:21:33;7.13;;;4.10;;
15102;SDS011;7652;53.584;9.998;2023-04-24T18:24:36;7.37;;;3.53;;
15102;SDS011;7652;53.584;9.998;2023-04-24T18:27:39;3.80;;;3.30;;
15102;SDS011;7652;53.584;9.998;2023-04-24T18:30:42;5.10;;;3.80;;
15102;SDS011;7652;53.584;9.998;2023-04-24T18:33:47;4.73;;;3.30;;
15102;SDS011;7652;53.584;9.998;2023-04-24T18:36:50;4.53;;;3.00;;
15102;SDS011;7652;53.584;9.998;2023-04-24T18:39:54;6.47;;;3.17;;
15102;SDS011;7652;53.584;9.998;2023-04-24T18:42:57;5.80;;;2.87;;
15102;SDS011;7652;53.584;9.998;2023-04-24T18:46:00;6.73;;;2.63;;
15102;SDS011;7652;53.584;9.998;2023-04-24T18:49:05;5.80;;;2.97;;